NCAR-RAP Real-Time Weather Data

Output produced by METARs form (20 February 2019  17:05 UTC)
found at http://weather.rap.ucar.edu/surface/
 
RORS 201000Z 20005KT 180V240 9999 FEW014 24/23 Q1019
RORS 200900Z 19006KT 9999 FEW014 24/23 Q1019
RORS 200800Z 19008KT 160V220 9999 FEW014 25/23 Q1018
RORS 200700Z 19009KT 160V230 9999 FEW014 26/23 Q1018
RORS 200600Z 18011KT 9999 FEW010 BKN070 25/23 Q1018
RORS 200500Z 18010KT 150V210 9999 FEW010 BKN070 26/23 Q1019
RORS 200400Z 17014KT 9999 FEW009 BKN070 26/23 Q1020
RORS 200300Z 15013KT 9999 FEW010 27/23 Q1021
RORS 200200Z 14012KT 9999 FEW012 BKN017 BKN090 25/23 Q1021
RORS 200100Z 14011KT 9999 SCT014 BKN100 25/23 Q1021
RORS 200000Z 13008KT 9999 SCT013 BKN100 23/22 Q1020
RORS 192300Z 13007KT 9999 FEW015 SCT060 BKN070 22/21 Q1020
RORS 192200Z 13009KT 9999 -SHRA FEW020 BKN080 22/21 Q1020
RORS 191000Z 01016KT 3000 +SHRA BR FEW005 BKN010 BKN018 22/21 Q1018
RORS 190900Z 36015KT 310V020 5000 R35/P2000N -SHRA FEW005 BKN010 BKN015 22/21 Q1018
RORS 190800Z 32005KT 280V020 9999 -SHRA FEW007 SCT010 FEW020TCU BKN021 23/21 Q1017
RORS 190700Z 20004KT 160V240 9999 -SHRA FEW007 SCT010 FEW020TCU BKN022 24/23 Q1017
RORS 190616Z 29006KT 200V350 5000 R17/1300VP2000U -SHRA FEW005 BKN014 FEW020TCU BKN017 22/21 Q1017 RMK 1ST005 5CU014 2TCU020 7CU017 A3005 TCU OHD MOV E
RORS 190613Z 27006KT 190V350 5000 R17/0700VP2000U -SHRA FEW005 BKN014 FEW020TCU BKN017 22/22 Q1017 RMK 1ST005 5CU014 2TCU020 7CU017 A3005 TCU OHD MOV E
RORS 190600Z 26007KT 170V320 1500 R17/0900VP2000D +SHRA BR SCT005 BKN010 FEW015TCU BKN017 22/21 Q1017
RORS 190544Z 24004KT 200V290 5000 R17/1500VP2000N -SHRA FEW007 BKN015 BKN021 22/21 Q1017 RMK 2ST007 5CU015 7CU021 A3005
RORS 190535Z 26011KT 220V290 1500 R17/0400VP2000D +SHRA BR SCT007 BKN010 22/21 Q1018 RMK 4ST007 6CU010 A3006 RI++
RORS 190500Z VRB01KT 9999 -SHRA FEW010 FEW020TCU SCT023 BKN050 25/23 Q1018
RORS 190400Z 20008KT 170V250 9999 VCSH FEW010 FEW020TCU SCT025 BKN050 25/23 Q1018
RORS 190300Z 19012KT 9999 FEW019 FEW025TCU BKN050 26/23 Q1018
RORS 190200Z 19011KT 160V240 9999 FEW015 SCT022 BKN028 26/24 Q1019
RORS 190100Z 19011KT 170V230 9999 -SHRA FEW015 BKN060 25/23 Q1018
RORS 190000Z 21009KT 170V250 9999 -SHRA SCT013 BKN026 24/23 Q1018
RORS 182300Z 19010KT 9999 VCSH FEW014 SCT020 BKN030 24/22 Q1018
RORS 182200Z 18012KT 9999 FEW015 SCT030 24/22 Q1017
RORS 181000Z 17008KT 9999 FEW019 BKN/// 23/21 Q1016
RORS 180900Z 16011KT 9999 FEW019 SCT070 BKN/// 24/21 Q1016
RORS 180800Z 14012KT 9999 FEW019 BKN060 24/21 Q1015
RORS 180700Z 14012KT 9999 FEW020 BKN070 25/21 Q1015
RORS 180600Z 14015KT 9999 FEW010 SCT080 BKN100 25/22 Q1016